Maya — V7MU3 — position and weather

sailwx.info

Track history (hours):
 
Tides and Currents Weather Stations Pressure Air Temp Water Temp Dewpoint Dewpoint Depression Visibility Wind Speed Wind Dir Waves Ship Positions

Maya

Last reported at 2018-Feb-17 18:33 UTC. Time now 2018-Feb-25 15:50 UTC.
Position N 31°02' E 122°12'.

Length 119 m; draft 5.9 m.

Type: Ship (hazmat cat B). MMSI: 538002900.

Date/timePositionNaut miles runAvg speedWind from/ knotsBaromVisibWave heightAir tempDewpointWater temp
2018-Feb-17 18:33N 31°02' E 122°12'0 4.4
2018-Feb-17 18:29N 31°03' E 122°12'611.6
2018-Feb-17 18:00N 31°04' E 122°05'611.6
2018-Feb-17 17:30N 31°06' E 121°59'510.1
2018-Feb-17 17:00N 31°08' E 121°54'5 9.1
2018-Feb-17 16:30N 31°11' E 121°50'4 8.6
2018-Feb-17 16:00N 31°15' E 121°47'8010.5
2018-Feb-17 08:28N 32°01' E 120°31'1 0.0
2018-Feb-16 03:55N 32°01' E 120°32'1 0.0
2018-Feb-15 01:57N 32°02' E 120°31'4 8.4
2018-Feb-15 01:30N 31°60' E 120°27'2 0.0
2018-Feb-13 12:04N 31°58' E 120°26'0 0.0
2018-Feb-13 12:00N 31°58' E 120°26'1 2.7
2018-Feb-13 11:30N 31°60' E 120°27'29 7.6
2018-Feb-13 07:38N 31°47' E 120°59'210.4
2018-Feb-13 07:27N 31°47' E 121°01'910.6
2018-Feb-13 06:38N 31°42' E 121°09'211.7
2018-Feb-13 06:30N 31°41' E 121°11'611.8
2018-Feb-13 05:59N 31°37' E 121°16'611.7
2018-Feb-13 05:30N 31°33' E 121°20'611.7
2018-Feb-13 05:00N 31°30' E 121°26'510.6
2018-Feb-13 04:30N 31°26' E 121°30'3810.0
2018-Feb-13 00:44N 31°11' E 122°11'410.5
2018-Feb-13 00:19N 31°08' E 122°15'410.4
2018-Feb-12 23:56N 31°06' E 122°19'8 9.0
2018-Feb-12 23:06N 31°08' E 122°28'1 7.9
2018-Feb-12 22:55N 31°08' E 122°29'  
Track history (hours):
 
Tides and Currents Weather Stations Pressure Air Temp Water Temp Dewpoint Dewpoint Depression Visibility Wind Speed Wind Dir Waves Ship Positions

Maya

Last reported at 2018-Feb-17 18:33 UTC. Time now 2018-Feb-25 15:50 UTC.
Position N 31°02' E 122°12'.

Length 119 m; draft 5.9 m.

Type: Ship (hazmat cat B). MMSI: 538002900.

Date/timePositionNaut miles runAvg speedWind from/ knotsBaromVisibWave heightAir tempDewpointWater temp
2018-Feb-17 18:33N 31°02' E 122°12'0 4.4
2018-Feb-17 18:29N 31°03' E 122°12'611.6
2018-Feb-17 18:00N 31°04' E 122°05'611.6
2018-Feb-17 17:30N 31°06' E 121°59'510.1
2018-Feb-17 17:00N 31°08' E 121°54'5 9.1
2018-Feb-17 16:30N 31°11' E 121°50'4 8.6
2018-Feb-17 16:00N 31°15' E 121°47'8010.5
2018-Feb-17 08:28N 32°01' E 120°31'1 0.0
2018-Feb-16 03:55N 32°01' E 120°32'1 0.0
2018-Feb-15 01:57N 32°02' E 120°31'4 8.4
2018-Feb-15 01:30N 31°60' E 120°27'2 0.0
2018-Feb-13 12:04N 31°58' E 120°26'0 0.0
2018-Feb-13 12:00N 31°58' E 120°26'1 2.7
2018-Feb-13 11:30N 31°60' E 120°27'29 7.6
2018-Feb-13 07:38N 31°47' E 120°59'210.4
2018-Feb-13 07:27N 31°47' E 121°01'910.6
2018-Feb-13 06:38N 31°42' E 121°09'211.7
2018-Feb-13 06:30N 31°41' E 121°11'611.8
2018-Feb-13 05:59N 31°37' E 121°16'611.7
2018-Feb-13 05:30N 31°33' E 121°20'611.7
2018-Feb-13 05:00N 31°30' E 121°26'510.6
2018-Feb-13 04:30N 31°26' E 121°30'3810.0
2018-Feb-13 00:44N 31°11' E 122°11'410.5
2018-Feb-13 00:19N 31°08' E 122°15'410.4
2018-Feb-12 23:56N 31°06' E 122°19'8 9.0
2018-Feb-12 23:06N 31°08' E 122°28'1 7.9
2018-Feb-12 22:55N 31°08' E 122°29'  

Dump ship's entire track history